sensor_id;sensor_type;location;lat;lon;timestamp;P1;durP1;ratioP1;P2;durP2;ratioP2
23322;SDS011;11833;52.554;13.554;2023-07-30T00:01:45;4.13;;;2.83;;
23322;SDS011;11833;52.554;13.554;2023-07-30T00:04:10;4.65;;;2.90;;
23322;SDS011;11833;52.554;13.554;2023-07-30T00:06:36;3.30;;;2.95;;
23322;SDS011;11833;52.554;13.554;2023-07-30T00:09:02;3.00;;;2.63;;
23322;SDS011;11833;52.554;13.554;2023-07-30T00:11:29;4.13;;;2.70;;
23322;SDS011;11833;52.554;13.554;2023-07-30T00:13:54;5.07;;;2.92;;
23322;SDS011;11833;52.554;13.554;2023-07-30T00:16:20;4.55;;;2.88;;
23322;SDS011;11833;52.554;13.554;2023-07-30T00:18:46;3.33;;;2.80;;
23322;SDS011;11833;52.554;13.554;2023-07-30T00:21:11;6.18;;;3.15;;
23322;SDS011;11833;52.554;13.554;2023-07-30T00:23:37;7.50;;;2.53;;
23322;SDS011;11833;52.554;13.554;2023-07-30T00:26:03;2.67;;;2.45;;
23322;SDS011;11833;52.554;13.554;2023-07-30T00:28:29;2.97;;;2.60;;
23322;SDS011;11833;52.554;13.554;2023-07-30T00:30:54;3.15;;;2.40;;
23322;SDS011;11833;52.554;13.554;2023-07-30T00:33:20;2.90;;;2.60;;
23322;SDS011;11833;52.554;13.554;2023-07-30T00:35:46;3.33;;;2.42;;
23322;SDS011;11833;52.554;13.554;2023-07-30T00:38:11;5.20;;;2.20;;
23322;SDS011;11833;52.554;13.554;2023-07-30T00:40:40;3.55;;;2.22;;
23322;SDS011;11833;52.554;13.554;2023-07-30T00:43:06;7.75;;;3.03;;
23322;SDS011;11833;52.554;13.554;2023-07-30T00:45:32;4.38;;;2.30;;
23322;SDS011;11833;52.554;13.554;2023-07-30T00:47:59;3.35;;;2.25;;
23322;SDS011;11833;52.554;13.554;2023-07-30T00:50:25;3.08;;;2.60;;
23322;SDS011;11833;52.554;13.554;2023-07-30T00:52:51;4.15;;;2.60;;
23322;SDS011;11833;52.554;13.554;2023-07-30T00:55:17;2.83;;;2.63;;
23322;SDS011;11833;52.554;13.554;2023-07-30T00:57:43;2.78;;;2.10;;
23322;SDS011;11833;52.554;13.554;2023-07-30T01:00:10;3.35;;;2.50;;
23322;SDS011;11833;52.554;13.554;2023-07-30T01:02:37;2.97;;;2.35;;
23322;SDS011;11833;52.554;13.554;2023-07-30T01:05:03;2.50;;;2.30;;
23322;SDS011;11833;52.554;13.554;2023-07-30T01:07:30;3.22;;;2.30;;
23322;SDS011;11833;52.554;13.554;2023-07-30T01:09:56;5.63;;;2.80;;
23322;SDS011;11833;52.554;13.554;2023-07-30T01:12:23;2.95;;;2.65;;
23322;SDS011;11833;52.554;13.554;2023-07-30T01:14:49;3.08;;;2.78;;
23322;SDS011;11833;52.554;13.554;2023-07-30T01:17:16;5.07;;;2.50;;
23322;SDS011;11833;52.554;13.554;2023-07-30T01:19:42;3.08;;;2.42;;
23322;SDS011;11833;52.554;13.554;2023-07-30T01:22:08;3.65;;;2.83;;
23322;SDS011;11833;52.554;13.554;2023-07-30T01:24:33;5.38;;;2.20;;
23322;SDS011;11833;52.554;13.554;2023-07-30T01:27:01;4.75;;;2.65;;
23322;SDS011;11833;52.554;13.554;2023-07-30T01:29:40;3.38;;;2.25;;
23322;SDS011;11833;52.554;13.554;2023-07-30T01:32:26;2.70;;;2.35;;
23322;SDS011;11833;52.554;13.554;2023-07-30T01:34:55;6.20;;;2.53;;
23322;SDS011;11833;52.554;13.554;2023-07-30T01:37:22;2.50;;;2.30;;
23322;SDS011;11833;52.554;13.554;2023-07-30T01:39:49;2.25;;;2.05;;
23322;SDS011;11833;52.554;13.554;2023-07-30T01:42:16;2.00;;;1.80;;
23322;SDS011;11833;52.554;13.554;2023-07-30T01:44:42;5.28;;;2.92;;
23322;SDS011;11833;52.554;13.554;2023-07-30T01:47:08;3.17;;;2.08;;
23322;SDS011;11833;52.554;13.554;2023-07-30T01:49:34;2.95;;;1.92;;
23322;SDS011;11833;52.554;13.554;2023-07-30T01:52:00;2.20;;;2.00;;
23322;SDS011;11833;52.554;13.554;2023-07-30T01:54:25;2.10;;;1.77;;
23322;SDS011;11833;52.554;13.554;2023-07-30T01:56:51;3.90;;;1.73;;
23322;SDS011;11833;52.554;13.554;2023-07-30T01:59:18;2.28;;;1.90;;
23322;SDS011;11833;52.554;13.554;2023-07-30T02:01:44;4.10;;;2.03;;
23322;SDS011;11833;52.554;13.554;2023-07-30T02:04:10;3.53;;;1.38;;
23322;SDS011;11833;52.554;13.554;2023-07-30T02:06:35;4.15;;;1.70;;
23322;SDS011;11833;52.554;13.554;2023-07-30T02:09:01;2.80;;;1.67;;
23322;SDS011;11833;52.554;13.554;2023-07-30T02:11:27;3.28;;;2.03;;
23322;SDS011;11833;52.554;13.554;2023-07-30T02:13:53;2.03;;;1.80;;
23322;SDS011;11833;52.554;13.554;2023-07-30T02:16:19;4.15;;;2.03;;
23322;SDS011;11833;52.554;13.554;2023-07-30T02:18:45;4.00;;;2.15;;
23322;SDS011;11833;52.554;13.554;2023-07-30T02:21:12;3.80;;;1.70;;
23322;SDS011;11833;52.554;13.554;2023-07-30T02:23:37;3.40;;;2.00;;
23322;SDS011;11833;52.554;13.554;2023-07-30T02:26:03;2.35;;;1.67;;
23322;SDS011;11833;52.554;13.554;2023-07-30T02:28:29;2.30;;;2.10;;
23322;SDS011;11833;52.554;13.554;2023-07-30T02:30:54;2.28;;;2.00;;
23322;SDS011;11833;52.554;13.554;2023-07-30T02:33:20;3.65;;;1.85;;
23322;SDS011;11833;52.554;13.554;2023-07-30T02:35:46;2.83;;;2.30;;
23322;SDS011;11833;52.554;13.554;2023-07-30T02:38:11;2.90;;;2.63;;
23322;SDS011;11833;52.554;13.554;2023-07-30T02:40:37;2.53;;;2.33;;
23322;SDS011;11833;52.554;13.554;2023-07-30T02:43:03;2.35;;;2.15;;
23322;SDS011;11833;52.554;13.554;2023-07-30T02:45:29;2.30;;;2.10;;
23322;SDS011;11833;52.554;13.554;2023-07-30T02:47:55;2.97;;;2.67;;
23322;SDS011;11833;52.554;13.554;2023-07-30T02:50:20;3.38;;;2.08;;
23322;SDS011;11833;52.554;13.554;2023-07-30T02:52:46;3.90;;;2.53;;
23322;SDS011;11833;52.554;13.554;2023-07-30T02:55:12;2.80;;;2.55;;
23322;SDS011;11833;52.554;13.554;2023-07-30T02:57:37;3.38;;;2.85;;
23322;SDS011;11833;52.554;13.554;2023-07-30T03:00:03;4.63;;;2.60;;
23322;SDS011;11833;52.554;13.554;2023-07-30T03:02:30;7.57;;;3.95;;
23322;SDS011;11833;52.554;13.554;2023-07-30T03:04:56;2.35;;;2.15;;
23322;SDS011;11833;52.554;13.554;2023-07-30T03:07:22;5.15;;;2.83;;
23322;SDS011;11833;52.554;13.554;2023-07-30T03:09:48;3.30;;;2.78;;
23322;SDS011;11833;52.554;13.554;2023-07-30T03:12:14;3.72;;;3.22;;
23322;SDS011;11833;52.554;13.554;2023-07-30T03:14:39;7.60;;;3.38;;
23322;SDS011;11833;52.554;13.554;2023-07-30T03:17:05;3.17;;;2.50;;
23322;SDS011;11833;52.554;13.554;2023-07-30T03:19:31;3.20;;;2.65;;
23322;SDS011;11833;52.554;13.554;2023-07-30T03:21:57;4.40;;;2.60;;
23322;SDS011;11833;52.554;13.554;2023-07-30T03:24:23;3.17;;;2.38;;
23322;SDS011;11833;52.554;13.554;2023-07-30T03:26:48;3.33;;;3.03;;
23322;SDS011;11833;52.554;13.554;2023-07-30T03:29:14;7.03;;;2.45;;
23322;SDS011;11833;52.554;13.554;2023-07-30T03:31:41;4.13;;;2.47;;
23322;SDS011;11833;52.554;13.554;2023-07-30T03:34:06;4.30;;;2.60;;
23322;SDS011;11833;52.554;13.554;2023-07-30T03:36:33;4.10;;;2.90;;
23322;SDS011;11833;52.554;13.554;2023-07-30T03:38:59;4.28;;;2.42;;
23322;SDS011;11833;52.554;13.554;2023-07-30T03:41:25;4.15;;;2.83;;
23322;SDS011;11833;52.554;13.554;2023-07-30T03:43:50;3.75;;;3.05;;
23322;SDS011;11833;52.554;13.554;2023-07-30T03:46:16;5.60;;;3.08;;
23322;SDS011;11833;52.554;13.554;2023-07-30T03:48:42;3.97;;;2.35;;
23322;SDS011;11833;52.554;13.554;2023-07-30T03:51:08;3.20;;;2.90;;
23322;SDS011;11833;52.554;13.554;2023-07-30T03:53:34;5.22;;;3.20;;
23322;SDS011;11833;52.554;13.554;2023-07-30T03:55:59;5.20;;;2.80;;
23322;SDS011;11833;52.554;13.554;2023-07-30T03:58:26;4.82;;;3.00;;
23322;SDS011;11833;52.554;13.554;2023-07-30T04:00:52;3.72;;;2.78;;
23322;SDS011;11833;52.554;13.554;2023-07-30T04:03:18;4.85;;;2.85;;
23322;SDS011;11833;52.554;13.554;2023-07-30T04:05:44;8.90;;;2.67;;
23322;SDS011;11833;52.554;13.554;2023-07-30T04:08:09;3.08;;;2.70;;
23322;SDS011;11833;52.554;13.554;2023-07-30T04:10:35;6.75;;;3.15;;
23322;SDS011;11833;52.554;13.554;2023-07-30T04:13:01;3.40;;;2.90;;
23322;SDS011;11833;52.554;13.554;2023-07-30T04:15:27;5.00;;;2.20;;
23322;SDS011;11833;52.554;13.554;2023-07-30T04:17:53;7.60;;;2.83;;
23322;SDS011;11833;52.554;13.554;2023-07-30T04:20:19;4.72;;;2.78;;
23322;SDS011;11833;52.554;13.554;2023-07-30T04:22:45;6.25;;;3.10;;
23322;SDS011;11833;52.554;13.554;2023-07-30T04:25:10;2.78;;;2.58;;
23322;SDS011;11833;52.554;13.554;2023-07-30T04:27:36;8.38;;;2.75;;
23322;SDS011;11833;52.554;13.554;2023-07-30T04:30:03;4.32;;;2.65;;
23322;SDS011;11833;52.554;13.554;2023-07-30T04:32:30;4.13;;;3.05;;
23322;SDS011;11833;52.554;13.554;2023-07-30T04:34:56;4.00;;;2.90;;
23322;SDS011;11833;52.554;13.554;2023-07-30T04:37:22;5.93;;;1.95;;
23322;SDS011;11833;52.554;13.554;2023-07-30T04:39:48;6.18;;;3.25;;
23322;SDS011;11833;52.554;13.554;2023-07-30T04:42:14;4.38;;;2.38;;
23322;SDS011;11833;52.554;13.554;2023-07-30T04:44:40;2.42;;;2.22;;
23322;SDS011;11833;52.554;13.554;2023-07-30T04:47:06;3.33;;;2.10;;
23322;SDS011;11833;52.554;13.554;2023-07-30T04:49:32;5.45;;;2.78;;
23322;SDS011;11833;52.554;13.554;2023-07-30T04:51:58;5.00;;;2.60;;
23322;SDS011;11833;52.554;13.554;2023-07-30T04:54:24;3.00;;;2.60;;
23322;SDS011;11833;52.554;13.554;2023-07-30T04:56:50;5.30;;;3.05;;
23322;SDS011;11833;52.554;13.554;2023-07-30T04:59:16;2.22;;;2.03;;
23322;SDS011;11833;52.554;13.554;2023-07-30T05:01:41;7.25;;;3.17;;
23322;SDS011;11833;52.554;13.554;2023-07-30T05:04:07;3.70;;;3.38;;
23322;SDS011;11833;52.554;13.554;2023-07-30T05:06:33;3.45;;;3.15;;
23322;SDS011;11833;52.554;13.554;2023-07-30T05:08:59;2.97;;;2.72;;
23322;SDS011;11833;52.554;13.554;2023-07-30T05:11:24;3.03;;;2.80;;
23322;SDS011;11833;52.554;13.554;2023-07-30T05:13:50;3.63;;;3.00;;
23322;SDS011;11833;52.554;13.554;2023-07-30T05:16:16;5.53;;;2.53;;
23322;SDS011;11833;52.554;13.554;2023-07-30T05:18:42;2.00;;;1.80;;
23322;SDS011;11833;52.554;13.554;2023-07-30T05:21:07;3.08;;;2.22;;
23322;SDS011;11833;52.554;13.554;2023-07-30T05:23:33;2.67;;;2.47;;
23322;SDS011;11833;52.554;13.554;2023-07-30T05:25:59;2.10;;;1.95;;
23322;SDS011;11833;52.554;13.554;2023-07-30T05:28:25;3.35;;;2.63;;
23322;SDS011;11833;52.554;13.554;2023-07-30T05:30:51;2.63;;;2.40;;
23322;SDS011;11833;52.554;13.554;2023-07-30T05:33:16;2.78;;;2.58;;
23322;SDS011;11833;52.554;13.554;2023-07-30T05:35:42;2.10;;;1.90;;
23322;SDS011;11833;52.554;13.554;2023-07-30T05:38:09;2.60;;;2.35;;
23322;SDS011;11833;52.554;13.554;2023-07-30T05:40:35;4.13;;;2.50;;
23322;SDS011;11833;52.554;13.554;2023-07-30T05:43:01;2.80;;;2.45;;
23322;SDS011;11833;52.554;13.554;2023-07-30T05:45:27;4.38;;;2.10;;
23322;SDS011;11833;52.554;13.554;2023-07-30T05:47:53;3.03;;;1.95;;
23322;SDS011;11833;52.554;13.554;2023-07-30T05:50:19;4.75;;;2.30;;
23322;SDS011;11833;52.554;13.554;2023-07-30T05:52:45;2.90;;;2.65;;
23322;SDS011;11833;52.554;13.554;2023-07-30T05:55:10;3.95;;;2.88;;
23322;SDS011;11833;52.554;13.554;2023-07-30T05:57:36;2.95;;;2.10;;
23322;SDS011;11833;52.554;13.554;2023-07-30T06:00:02;3.63;;;2.88;;
23322;SDS011;11833;52.554;13.554;2023-07-30T06:02:28;2.85;;;2.63;;
23322;SDS011;11833;52.554;13.554;2023-07-30T06:04:54;4.78;;;2.40;;
23322;SDS011;11833;52.554;13.554;2023-07-30T06:07:20;4.53;;;1.90;;
23322;SDS011;11833;52.554;13.554;2023-07-30T06:09:45;4.18;;;2.00;;
23322;SDS011;11833;52.554;13.554;2023-07-30T06:12:11;3.58;;;2.40;;
23322;SDS011;11833;52.554;13.554;2023-07-30T06:14:37;2.78;;;2.13;;
23322;SDS011;11833;52.554;13.554;2023-07-30T06:17:03;2.30;;;2.10;;
23322;SDS011;11833;52.554;13.554;2023-07-30T06:19:28;2.20;;;1.70;;
23322;SDS011;11833;52.554;13.554;2023-07-30T06:21:54;2.50;;;1.90;;
23322;SDS011;11833;52.554;13.554;2023-07-30T06:24:20;2.22;;;2.03;;
23322;SDS011;11833;52.554;13.554;2023-07-30T06:26:46;2.15;;;1.60;;
23322;SDS011;11833;52.554;13.554;2023-07-30T06:29:11;3.13;;;2.28;;
23322;SDS011;11833;52.554;13.554;2023-07-30T06:31:37;5.93;;;1.52;;
23322;SDS011;11833;52.554;13.554;2023-07-30T06:34:03;2.28;;;2.08;;
23322;SDS011;11833;52.554;13.554;2023-07-30T06:36:29;1.95;;;1.80;;
23322;SDS011;11833;52.554;13.554;2023-07-30T06:38:55;2.10;;;1.90;;
23322;SDS011;11833;52.554;13.554;2023-07-30T06:41:21;4.80;;;1.83;;
23322;SDS011;11833;52.554;13.554;2023-07-30T06:43:47;1.70;;;1.60;;
23322;SDS011;11833;52.554;13.554;2023-07-30T06:46:12;2.30;;;1.98;;
23322;SDS011;11833;52.554;13.554;2023-07-30T06:48:38;1.60;;;1.50;;
23322;SDS011;11833;52.554;13.554;2023-07-30T06:51:05;1.95;;;1.85;;
23322;SDS011;11833;52.554;13.554;2023-07-30T06:53:32;1.33;;;1.23;;
23322;SDS011;11833;52.554;13.554;2023-07-30T06:55:58;2.65;;;1.73;;
23322;SDS011;11833;52.554;13.554;2023-07-30T06:58:24;1.65;;;1.42;;
23322;SDS011;11833;52.554;13.554;2023-07-30T07:00:49;2.03;;;1.50;;
23322;SDS011;11833;52.554;13.554;2023-07-30T07:03:15;5.90;;;1.40;;
23322;SDS011;11833;52.554;13.554;2023-07-30T07:05:41;2.50;;;1.42;;
23322;SDS011;11833;52.554;13.554;2023-07-30T07:08:07;1.17;;;1.05;;
23322;SDS011;11833;52.554;13.554;2023-07-30T07:10:32;2.08;;;1.25;;
23322;SDS011;11833;52.554;13.554;2023-07-30T07:12:58;2.38;;;1.50;;
23322;SDS011;11833;52.554;13.554;2023-07-30T07:15:24;1.40;;;1.10;;
23322;SDS011;11833;52.554;13.554;2023-07-30T07:17:49;1.77;;;1.23;;
23322;SDS011;11833;52.554;13.554;2023-07-30T07:20:15;1.33;;;1.23;;
23322;SDS011;11833;52.554;13.554;2023-07-30T07:22:41;4.78;;;1.58;;
23322;SDS011;11833;52.554;13.554;2023-07-30T07:25:07;1.42;;;1.30;;
23322;SDS011;11833;52.554;13.554;2023-07-30T07:27:33;6.75;;;1.63;;
23322;SDS011;11833;52.554;13.554;2023-07-30T07:29:59;2.65;;;1.73;;
23322;SDS011;11833;52.554;13.554;2023-07-30T07:32:25;2.38;;;1.98;;
23322;SDS011;11833;52.554;13.554;2023-07-30T07:34:51;1.75;;;1.45;;
23322;SDS011;11833;52.554;13.554;2023-07-30T07:37:16;2.42;;;1.48;;
23322;SDS011;11833;52.554;13.554;2023-07-30T07:39:44;2.33;;;1.85;;
23322;SDS011;11833;52.554;13.554;2023-07-30T07:42:11;2.85;;;1.35;;
23322;SDS011;11833;52.554;13.554;2023-07-30T07:44:37;1.35;;;1.25;;
23322;SDS011;11833;52.554;13.554;2023-07-30T07:47:03;4.60;;;1.85;;
23322;SDS011;11833;52.554;13.554;2023-07-30T07:49:29;1.65;;;1.30;;
23322;SDS011;11833;52.554;13.554;2023-07-30T07:51:55;1.60;;;1.50;;
23322;SDS011;11833;52.554;13.554;2023-07-30T07:54:20;1.90;;;1.33;;
23322;SDS011;11833;52.554;13.554;2023-07-30T07:56:46;2.30;;;1.98;;
23322;SDS011;11833;52.554;13.554;2023-07-30T07:59:12;3.50;;;1.52;;
23322;SDS011;11833;52.554;13.554;2023-07-30T08:01:38;1.60;;;1.50;;
23322;SDS011;11833;52.554;13.554;2023-07-30T08:04:05;2.17;;;1.70;;
23322;SDS011;11833;52.554;13.554;2023-07-30T08:06:31;3.55;;;1.70;;
23322;SDS011;11833;52.554;13.554;2023-07-30T08:08:57;1.83;;;1.73;;
23322;SDS011;11833;52.554;13.554;2023-07-30T08:11:23;4.82;;;1.73;;
23322;SDS011;11833;52.554;13.554;2023-07-30T08:13:49;1.77;;;1.40;;
23322;SDS011;11833;52.554;13.554;2023-07-30T08:16:14;2.25;;;1.48;;
23322;SDS011;11833;52.554;13.554;2023-07-30T08:18:40;2.05;;;1.70;;
23322;SDS011;11833;52.554;13.554;2023-07-30T08:21:06;1.90;;;1.58;;
23322;SDS011;11833;52.554;13.554;2023-07-30T08:23:32;2.72;;;1.58;;
23322;SDS011;11833;52.554;13.554;2023-07-30T08:25:57;10.52;;;1.55;;
23322;SDS011;11833;52.554;13.554;2023-07-30T08:28:23;1.95;;;1.80;;
23322;SDS011;11833;52.554;13.554;2023-07-30T08:30:49;2.55;;;1.77;;
23322;SDS011;11833;52.554;13.554;2023-07-30T08:33:15;2.38;;;1.75;;
23322;SDS011;11833;52.554;13.554;2023-07-30T08:35:40;3.58;;;1.88;;
23322;SDS011;11833;52.554;13.554;2023-07-30T08:38:06;1.30;;;1.20;;
23322;SDS011;11833;52.554;13.554;2023-07-30T08:40:32;2.53;;;1.60;;
23322;SDS011;11833;52.554;13.554;2023-07-30T08:42:58;2.13;;;1.60;;
23322;SDS011;11833;52.554;13.554;2023-07-30T08:45:24;1.95;;;1.55;;
23322;SDS011;11833;52.554;13.554;2023-07-30T08:47:50;2.60;;;1.27;;
23322;SDS011;11833;52.554;13.554;2023-07-30T08:50:15;1.63;;;1.40;;
23322;SDS011;11833;52.554;13.554;2023-07-30T08:52:41;1.90;;;1.25;;
23322;SDS011;11833;52.554;13.554;2023-07-30T08:55:08;3.75;;;1.67;;
23322;SDS011;11833;52.554;13.554;2023-07-30T08:57:35;4.35;;;1.88;;
23322;SDS011;11833;52.554;13.554;2023-07-30T09:00:06;3.78;;;2.05;;
23322;SDS011;11833;52.554;13.554;2023-07-30T09:05:09;1.73;;;1.50;;
23322;SDS011;11833;52.554;13.554;2023-07-30T09:07:36;3.70;;;1.55;;
23322;SDS011;11833;52.554;13.554;2023-07-30T09:10:01;3.58;;;1.58;;
23322;SDS011;11833;52.554;13.554;2023-07-30T09:12:34;2.20;;;1.15;;
23322;SDS011;11833;52.554;13.554;2023-07-30T09:15:04;3.20;;;1.70;;
23322;SDS011;11833;52.554;13.554;2023-07-30T09:17:32;3.10;;;1.80;;
23322;SDS011;11833;52.554;13.554;2023-07-30T09:19:59;6.10;;;1.73;;
23322;SDS011;11833;52.554;13.554;2023-07-30T09:24:52;3.40;;;1.60;;
23322;SDS011;11833;52.554;13.554;2023-07-30T09:27:22;2.15;;;1.50;;
23322;SDS011;11833;52.554;13.554;2023-07-30T09:29:58;4.28;;;1.48;;
23322;SDS011;11833;52.554;13.554;2023-07-30T09:32:34;2.13;;;1.45;;
23322;SDS011;11833;52.554;13.554;2023-07-30T09:35:06;1.85;;;1.00;;
23322;SDS011;11833;52.554;13.554;2023-07-30T09:37:38;2.47;;;1.20;;
23322;SDS011;11833;52.554;13.554;2023-07-30T09:40:06;2.83;;;1.50;;
23322;SDS011;11833;52.554;13.554;2023-07-30T09:42:37;2.40;;;1.08;;
23322;SDS011;11833;52.554;13.554;2023-07-30T09:45:07;3.05;;;1.40;;
23322;SDS011;11833;52.554;13.554;2023-07-30T09:47:46;2.38;;;1.30;;
23322;SDS011;11833;52.554;13.554;2023-07-30T09:50:16;3.22;;;1.30;;
23322;SDS011;11833;52.554;13.554;2023-07-30T09:52:42;3.33;;;1.45;;
23322;SDS011;11833;52.554;13.554;2023-07-30T09:55:09;2.28;;;1.65;;
23322;SDS011;11833;52.554;13.554;2023-07-30T09:57:36;2.17;;;1.27;;
23322;SDS011;11833;52.554;13.554;2023-07-30T10:00:03;4.10;;;1.27;;
23322;SDS011;11833;52.554;13.554;2023-07-30T10:02:30;2.65;;;1.30;;
23322;SDS011;11833;52.554;13.554;2023-07-30T10:05:07;5.20;;;2.00;;
23322;SDS011;11833;52.554;13.554;2023-07-30T10:07:38;1.77;;;1.30;;
23322;SDS011;11833;52.554;13.554;2023-07-30T10:10:18;1.67;;;1.17;;
23322;SDS011;11833;52.554;13.554;2023-07-30T10:12:45;2.40;;;1.20;;
23322;SDS011;11833;52.554;13.554;2023-07-30T10:15:12;4.28;;;1.08;;
23322;SDS011;11833;52.554;13.554;2023-07-30T10:17:38;4.28;;;1.52;;
23322;SDS011;11833;52.554;13.554;2023-07-30T10:22:52;1.90;;;1.08;;
23322;SDS011;11833;52.554;13.554;2023-07-30T10:25:20;7.32;;;1.80;;
23322;SDS011;11833;52.554;13.554;2023-07-30T10:27:52;3.90;;;1.73;;
23322;SDS011;11833;52.554;13.554;2023-07-30T10:30:18;2.45;;;1.35;;
23322;SDS011;11833;52.554;13.554;2023-07-30T10:38:12;1.60;;;1.30;;
23322;SDS011;11833;52.554;13.554;2023-07-30T10:40:41;3.13;;;1.17;;
23322;SDS011;11833;52.554;13.554;2023-07-30T10:43:16;2.50;;;1.30;;
23322;SDS011;11833;52.554;13.554;2023-07-30T10:45:49;3.28;;;1.38;;
23322;SDS011;11833;52.554;13.554;2023-07-30T10:48:17;1.83;;;1.05;;
23322;SDS011;11833;52.554;13.554;2023-07-30T10:50:43;3.85;;;1.50;;
23322;SDS011;11833;52.554;13.554;2023-07-30T10:53:14;1.73;;;1.23;;
23322;SDS011;11833;52.554;13.554;2023-07-30T10:55:41;2.17;;;1.25;;
23322;SDS011;11833;52.554;13.554;2023-07-30T10:58:07;1.38;;;1.00;;
23322;SDS011;11833;52.554;13.554;2023-07-30T11:00:33;4.13;;;1.77;;
23322;SDS011;11833;52.554;13.554;2023-07-30T11:02:59;6.50;;;2.28;;
23322;SDS011;11833;52.554;13.554;2023-07-30T11:05:24;4.68;;;1.60;;
23322;SDS011;11833;52.554;13.554;2023-07-30T11:07:51;12.88;;;4.93;;
23322;SDS011;11833;52.554;13.554;2023-07-30T11:10:17;7.32;;;3.97;;
23322;SDS011;11833;52.554;13.554;2023-07-30T11:12:43;3.97;;;1.65;;
23322;SDS011;11833;52.554;13.554;2023-07-30T11:15:09;4.13;;;2.03;;
23322;SDS011;11833;52.554;13.554;2023-07-30T11:17:35;5.07;;;1.35;;
23322;SDS011;11833;52.554;13.554;2023-07-30T11:20:01;4.10;;;2.15;;
23322;SDS011;11833;52.554;13.554;2023-07-30T11:22:30;4.68;;;1.98;;
23322;SDS011;11833;52.554;13.554;2023-07-30T11:24:58;2.53;;;1.58;;
23322;SDS011;11833;52.554;13.554;2023-07-30T11:27:26;2.13;;;1.02;;
23322;SDS011;11833;52.554;13.554;2023-07-30T11:29:55;3.08;;;1.38;;
23322;SDS011;11833;52.554;13.554;2023-07-30T11:32:22;1.90;;;1.20;;
23322;SDS011;11833;52.554;13.554;2023-07-30T11:34:53;4.82;;;1.40;;
23322;SDS011;11833;52.554;13.554;2023-07-30T11:37:20;1.92;;;1.00;;
23322;SDS011;11833;52.554;13.554;2023-07-30T11:39:47;4.30;;;1.60;;
